createdAt,value
2019-05-16T00:00:29.848Z,3.40
2019-05-16T00:01:30.146Z,3.10
2019-05-16T00:02:29.663Z,3.40
2019-05-16T00:03:29.657Z,3.30
2019-05-16T00:04:29.785Z,3.70
2019-05-16T00:05:29.577Z,3.50
2019-05-16T00:06:29.696Z,3.10
2019-05-16T00:07:29.527Z,3.50
2019-05-16T00:08:29.516Z,3.40
2019-05-16T00:09:29.613Z,3.20
2019-05-16T00:10:29.459Z,3.60
2019-05-16T00:11:29.552Z,3.30
2019-05-16T00:12:29.404Z,3.40
2019-05-16T00:13:29.380Z,3.30
2019-05-16T00:14:29.361Z,3.50
2019-05-16T00:15:29.340Z,3.60
2019-05-16T00:16:29.329Z,3.50
2019-05-16T00:17:29.367Z,3.30
2019-05-16T00:18:29.369Z,3.40
2019-05-16T00:19:29.225Z,3.40
2019-05-16T00:20:29.467Z,3.50
2019-05-16T00:21:29.169Z,3.50
2019-05-16T00:22:29.290Z,3.50
2019-05-16T00:23:29.109Z,3.60
2019-05-16T00:24:29.250Z,3.70
2019-05-16T00:25:29.058Z,3.50
2019-05-16T00:26:29.223Z,3.50
2019-05-16T00:27:29.001Z,3.60
2019-05-16T00:28:29.129Z,3.50
2019-05-16T00:29:28.958Z,3.40
2019-05-16T00:30:29.038Z,3.30
2019-05-16T00:31:28.906Z,3.40
2019-05-16T00:32:29.059Z,3.80
2019-05-16T00:33:28.860Z,3.70
2019-05-16T00:34:28.822Z,3.80
2019-05-16T00:35:28.849Z,3.50
2019-05-16T00:36:28.884Z,3.80
2019-05-16T00:37:28.830Z,3.70
2019-05-16T00:38:28.896Z,3.70
2019-05-16T00:39:28.690Z,3.50
2019-05-16T00:40:28.826Z,3.70
2019-05-16T00:41:28.639Z,3.90
2019-05-16T00:42:28.775Z,3.60
2019-05-16T00:43:28.992Z,3.50
2019-05-16T00:44:28.743Z,3.80
2019-05-16T00:45:29.422Z,3.90
2019-05-16T00:46:28.637Z,3.70
2019-05-16T00:47:28.537Z,4.00
2019-05-16T00:48:28.941Z,4.00
2019-05-16T00:49:28.419Z,3.70
2019-05-16T00:50:28.943Z,4.00
2019-05-16T00:51:28.807Z,3.80
2019-05-16T00:52:28.921Z,3.70
2019-05-16T00:53:28.854Z,4.10
2019-05-16T00:54:28.499Z,4.00
2019-05-16T00:55:28.481Z,3.80
2019-05-16T00:56:28.860Z,4.20
2019-05-16T00:57:28.287Z,4.20
2019-05-16T00:58:28.528Z,4.30
2019-05-16T00:59:28.153Z,4.10
2019-05-16T01:00:28.540Z,4.30
2019-05-16T01:01:28.324Z,4.00
2019-05-16T01:02:28.876Z,3.90
2019-05-16T01:03:29.045Z,3.90
2019-05-16T01:04:28.804Z,4.10
2019-05-16T01:05:28.472Z,3.90
2019-05-16T01:06:28.687Z,4.10
2019-05-16T01:07:27.939Z,3.90
2019-05-16T01:08:28.300Z,4.20
2019-05-16T01:09:28.315Z,4.10
2019-05-16T01:10:29.559Z,3.90
2019-05-16T01:11:27.903Z,4.00
2019-05-16T01:12:28.360Z,4.20
2019-05-16T01:13:27.940Z,4.20
2019-05-16T01:14:28.275Z,3.90
2019-05-16T01:15:28.796Z,4.30
2019-05-16T01:16:27.744Z,4.20
2019-05-16T01:17:28.391Z,4.40
2019-05-16T01:18:28.730Z,3.90
2019-05-16T01:19:27.860Z,4.50
2019-05-16T01:20:27.978Z,4.20
2019-05-16T01:21:28.732Z,4.20
2019-05-16T01:22:28.971Z,3.90
2019-05-16T01:23:28.299Z,4.60
2019-05-16T01:24:29.272Z,4.10
2019-05-16T01:25:28.211Z,4.60
2019-05-16T01:26:28.607Z,4.30
2019-05-16T01:27:27.806Z,4.20
2019-05-16T01:28:28.444Z,4.20
2019-05-16T01:29:28.233Z,4.10
2019-05-16T01:30:28.677Z,4.30
2019-05-16T01:31:27.997Z,4.10
2019-05-16T01:32:29.163Z,4.20
2019-05-16T01:33:28.138Z,4.30
2019-05-16T01:34:28.438Z,4.20
2019-05-16T01:35:27.888Z,3.80
2019-05-16T01:36:36.601Z,4.00
2019-05-16T01:37:27.915Z,4.20
2019-05-16T01:38:28.545Z,3.90
2019-05-16T01:39:28.773Z,4.40
2019-05-16T01:40:28.083Z,3.90
2019-05-16T01:41:28.527Z,4.30
2019-05-16T01:42:27.911Z,4.20
2019-05-16T01:43:28.426Z,3.80
2019-05-16T01:44:28.702Z,4.00
2019-05-16T01:45:27.755Z,3.50
2019-05-16T01:46:28.442Z,4.00
2019-05-16T01:47:28.817Z,3.80
2019-05-16T01:48:28.994Z,3.90
2019-05-16T01:49:28.000Z,3.80
2019-05-16T01:50:28.412Z,4.00
2019-05-16T01:51:28.863Z,3.60
2019-05-16T01:52:28.927Z,4.00
2019-05-16T01:53:27.854Z,4.30
2019-05-16T01:54:28.301Z,3.90
2019-05-16T01:55:28.564Z,4.10
2019-05-16T01:56:28.090Z,4.00
2019-05-16T01:57:28.220Z,3.90
2019-05-16T01:58:28.810Z,4.00
2019-05-16T01:59:28.408Z,4.00
2019-05-16T02:00:35.678Z,4.10
2019-05-16T02:01:28.714Z,4.00
2019-05-16T02:02:28.783Z,4.00
2019-05-16T02:03:28.250Z,3.80
2019-05-16T02:04:28.612Z,4.10
2019-05-16T02:05:27.980Z,4.10
2019-05-16T02:06:28.662Z,3.70
2019-05-16T02:07:28.262Z,4.10
2019-05-16T02:08:28.498Z,4.00
2019-05-16T02:09:28.046Z,4.00
2019-05-16T02:10:28.332Z,4.00
2019-05-16T02:11:28.358Z,4.10
2019-05-16T02:12:27.736Z,3.90
2019-05-16T02:13:28.394Z,3.90
2019-05-16T02:14:28.236Z,3.90
2019-05-16T02:15:26.093Z,3.80
2019-05-16T02:16:27.880Z,4.10
2019-05-16T02:17:28.673Z,4.00
2019-05-16T02:18:26.127Z,4.20
2019-05-16T02:19:27.884Z,4.10
2019-05-16T02:20:28.161Z,4.00
2019-05-16T02:21:26.049Z,4.00
2019-05-16T02:22:25.900Z,4.00
2019-05-16T02:23:27.753Z,4.20
2019-05-16T02:24:28.333Z,4.00
2019-05-16T02:25:27.671Z,3.90
2019-05-16T02:26:28.242Z,4.10
2019-05-16T02:27:25.887Z,4.00
2019-05-16T02:28:31.324Z,4.40
2019-05-16T02:29:25.708Z,4.20
2019-05-16T02:30:25.814Z,4.20
2019-05-16T02:31:25.658Z,3.90
2019-05-16T02:32:25.819Z,3.90
2019-05-16T02:33:25.611Z,3.90
2019-05-16T02:34:25.732Z,4.00
2019-05-16T02:35:25.548Z,4.30
2019-05-16T02:36:25.520Z,4.10
2019-05-16T02:37:29.943Z,4.50
2019-05-16T02:38:25.469Z,4.20
2019-05-16T02:39:25.560Z,4.10
2019-05-16T02:40:25.410Z,4.30
2019-05-16T02:41:25.387Z,3.80
2019-05-16T02:42:25.349Z,4.20
2019-05-16T02:43:26.558Z,4.60
2019-05-16T02:44:25.302Z,4.30
2019-05-16T02:45:25.399Z,4.30
2019-05-16T02:46:25.239Z,4.40
2019-05-16T02:49:00.596Z,4.20
2019-05-16T02:49:57.313Z,4.30
2019-05-16T02:50:57.375Z,4.00
2019-05-16T02:51:57.251Z,4.40
2019-05-16T02:52:57.292Z,4.20
2019-05-16T02:53:57.190Z,4.30
2019-05-16T02:55:00.601Z,4.50
2019-05-16T02:55:57.144Z,4.80
2019-05-16T02:56:57.220Z,4.40
2019-05-16T02:58:00.391Z,4.20
2019-05-16T02:58:57.125Z,4.20
2019-05-16T02:59:57.031Z,4.40
2019-05-16T03:00:57.038Z,4.30
2019-05-16T03:01:56.985Z,4.30
2019-05-16T03:02:56.941Z,4.40
2019-05-16T03:03:56.924Z,4.10
2019-05-16T03:04:56.952Z,4.30
2019-05-16T03:05:56.864Z,4.10
2019-05-16T03:06:56.860Z,4.30
2019-05-16T03:07:56.819Z,4.30
2019-05-16T03:08:56.875Z,4.50
2019-05-16T03:09:56.762Z,4.20
2019-05-16T03:10:56.784Z,4.30
2019-05-16T03:11:56.705Z,4.60
2019-05-16T03:12:56.694Z,4.30
2019-05-16T03:13:56.654Z,4.30
2019-05-16T03:14:56.709Z,4.70
2019-05-16T03:15:56.592Z,4.50
2019-05-16T03:16:56.619Z,4.50
2019-05-16T03:17:59.036Z,4.50
2019-05-16T03:18:56.501Z,4.40
2019-05-16T03:19:56.475Z,4.50
2019-05-16T03:20:56.549Z,4.10
2019-05-16T03:21:56.429Z,4.30
2019-05-16T03:22:56.459Z,4.60
2019-05-16T03:23:56.461Z,4.60
2019-05-16T03:24:56.339Z,4.40
2019-05-16T03:25:56.363Z,3.80
2019-05-16T03:26:56.289Z,4.30
2019-05-16T03:27:56.354Z,4.40
2019-05-16T03:28:56.232Z,4.60
2019-05-16T03:29:56.377Z,4.60
2019-05-16T03:30:56.185Z,4.00
2019-05-16T03:31:56.294Z,4.30
2019-05-16T03:32:56.182Z,4.20
2019-05-16T03:33:59.782Z,4.00
2019-05-16T03:34:56.083Z,4.60
2019-05-16T03:35:56.346Z,4.20
2019-05-16T03:36:56.024Z,4.40
2019-05-16T03:38:00.672Z,4.30
2019-05-16T03:38:55.956Z,4.50
2019-05-16T03:39:55.926Z,4.10
2019-05-16T03:40:55.912Z,4.20
2019-05-16T03:41:56.050Z,4.50
2019-05-16T03:42:55.843Z,4.10
2019-05-16T03:43:55.959Z,4.00
2019-05-16T03:44:55.798Z,4.10
2019-05-16T03:45:55.971Z,4.20
2019-05-16T03:46:55.755Z,4.10
2019-05-16T03:47:55.891Z,4.00
2019-05-16T03:48:55.711Z,4.20
2019-05-16T03:49:55.800Z,4.10
2019-05-16T03:50:55.636Z,4.20
2019-05-16T03:51:55.816Z,4.20
2019-05-16T03:52:55.578Z,4.20
2019-05-16T03:53:55.730Z,4.20
2019-05-16T03:54:55.519Z,4.30
2019-05-16T03:55:55.496Z,4.30
2019-05-16T03:56:55.469Z,3.80
2019-05-16T03:57:55.650Z,4.10
2019-05-16T03:58:55.415Z,4.10
2019-05-16T03:59:55.561Z,3.90
2019-05-16T04:00:55.557Z,3.80
2019-05-16T04:01:55.471Z,4.20
2019-05-16T04:02:55.308Z,3.90
2019-05-16T04:03:55.487Z,3.90
2019-05-16T04:04:55.245Z,3.90
2019-05-16T04:05:55.315Z,4.10
2019-05-16T04:06:55.234Z,3.90
2019-05-16T04:08:10.155Z,4.10
2019-05-16T04:08:55.214Z,3.80
2019-05-16T04:09:55.117Z,4.00
2019-05-16T04:10:55.121Z,3.70
2019-05-16T04:11:55.141Z,3.80
2019-05-16T04:12:55.022Z,3.70
2019-05-16T04:13:55.044Z,3.80
2019-05-16T04:14:54.974Z,3.50
2019-05-16T04:15:55.060Z,3.60
2019-05-16T04:16:54.962Z,3.80
2019-05-16T04:17:54.915Z,3.70
2019-05-16T04:18:54.985Z,3.60
2019-05-16T04:19:54.833Z,3.70
2019-05-16T04:20:54.894Z,3.80
2019-05-16T04:21:54.773Z,3.50
2019-05-16T04:22:54.755Z,3.50
2019-05-16T04:23:54.810Z,3.50
2019-05-16T04:24:54.691Z,3.50
2019-05-16T04:25:54.731Z,3.60
2019-05-16T04:26:54.649Z,3.80
2019-05-16T04:27:54.592Z,3.50
2019-05-16T04:28:54.649Z,3.40
2019-05-16T04:29:54.570Z,3.70
2019-05-16T04:30:54.660Z,3.40
2019-05-16T04:31:54.505Z,3.60
2019-05-16T04:32:54.479Z,3.60
2019-05-16T04:33:54.461Z,3.40
2019-05-16T04:34:54.474Z,3.40
2019-05-16T04:35:54.401Z,3.50
2019-05-16T04:36:54.501Z,3.50
2019-05-16T04:37:54.345Z,3.70
2019-05-16T04:38:54.405Z,3.30
2019-05-16T04:39:54.281Z,3.20
2019-05-16T04:40:54.325Z,3.40
2019-05-16T04:41:54.254Z,3.20
2019-05-16T04:42:54.332Z,3.00
2019-05-16T04:43:54.230Z,3.60
2019-05-16T04:44:54.158Z,3.40
2019-05-16T04:45:54.274Z,3.30
2019-05-16T04:46:54.107Z,3.20
2019-05-16T04:47:54.161Z,3.30
2019-05-16T04:48:54.175Z,3.10
2019-05-16T04:49:54.011Z,3.40
2019-05-16T04:50:54.080Z,3.20
2019-05-16T04:51:53.954Z,2.90
2019-05-16T04:52:54.092Z,3.00
2019-05-16T04:53:53.903Z,3.20
2019-05-16T04:54:54.002Z,3.20
2019-05-16T04:55:53.866Z,2.80
2019-05-16T04:56:53.911Z,3.10
2019-05-16T04:57:53.802Z,3.30
2019-05-16T04:58:53.944Z,3.30
2019-05-16T04:59:53.762Z,3.20
2019-05-16T05:00:53.841Z,3.10
2019-05-16T05:01:53.691Z,3.20
2019-05-16T05:02:53.751Z,3.20
2019-05-16T05:04:06.242Z,3.30
2019-05-16T05:04:53.622Z,3.00
2019-05-16T05:05:53.701Z,3.20
2019-05-16T05:06:55.856Z,3.10
2019-05-16T05:07:53.700Z,3.50
2019-05-16T05:08:58.634Z,3.40
2019-05-16T05:09:53.481Z,3.10
2019-05-16T05:10:53.605Z,3.40
2019-05-16T05:11:53.430Z,3.20
2019-05-16T05:12:53.525Z,3.50
2019-05-16T05:13:53.366Z,3.20
2019-05-16T05:14:53.434Z,3.00
2019-05-16T05:15:53.315Z,3.00
2019-05-16T05:16:53.445Z,3.00
2019-05-16T05:17:53.262Z,3.30
2019-05-16T05:18:53.353Z,2.90
2019-05-16T05:19:53.215Z,3.10
2019-05-16T05:20:53.192Z,3.00
2019-05-16T05:21:53.152Z,2.90
2019-05-16T05:22:53.279Z,3.30
2019-05-16T05:23:53.101Z,3.00
2019-05-16T05:24:53.189Z,3.20
2019-05-16T05:25:53.205Z,3.10
2019-05-16T05:26:53.024Z,3.00
2019-05-16T05:27:53.114Z,2.90
2019-05-16T05:28:52.979Z,3.00
2019-05-16T05:29:53.143Z,2.60
2019-05-16T05:30:52.910Z,3.10
2019-05-16T05:31:55.110Z,2.80
2019-05-16T05:32:52.869Z,2.60
2019-05-16T05:33:52.958Z,2.80
2019-05-16T05:34:52.815Z,2.90
2019-05-16T05:35:52.971Z,2.80
2019-05-16T05:36:52.761Z,2.90
2019-05-16T05:37:52.884Z,2.70
2019-05-16T05:39:06.473Z,2.70
2019-05-16T05:39:52.685Z,2.80
2019-05-16T05:40:52.674Z,2.80
2019-05-16T05:41:52.638Z,2.70
2019-05-16T05:42:52.596Z,2.60
2019-05-16T05:43:54.478Z,2.70
2019-05-16T05:44:52.540Z,2.50
2019-05-16T05:45:52.631Z,2.80
2019-05-16T05:46:52.507Z,2.60
2019-05-16T05:47:52.643Z,2.70
2019-05-16T05:48:52.449Z,2.80
2019-05-16T05:49:52.556Z,2.70
2019-05-16T05:50:52.396Z,2.60
2019-05-16T05:51:52.469Z,2.60
2019-05-16T05:52:52.342Z,2.50
2019-05-16T05:53:52.493Z,2.50
2019-05-16T05:54:52.297Z,2.60
2019-05-16T05:55:52.397Z,2.80
2019-05-16T05:56:52.220Z,2.70
2019-05-16T05:57:52.210Z,2.50
2019-05-16T05:58:52.344Z,2.70
2019-05-16T05:59:52.151Z,2.40
2019-05-16T06:00:52.635Z,2.40
2019-05-16T06:01:52.103Z,2.40
2019-05-16T06:02:52.073Z,2.40
2019-05-16T06:03:52.040Z,2.20
2019-05-16T06:04:52.155Z,2.70
2019-05-16T06:05:52.005Z,2.50
2019-05-16T06:06:52.170Z,2.70
2019-05-16T06:07:51.951Z,2.40
2019-05-16T06:08:51.942Z,2.70
2019-05-16T06:09:56.149Z,2.70
2019-05-16T06:10:51.858Z,2.50
2019-05-16T06:11:51.923Z,2.70
2019-05-16T06:12:51.803Z,2.50
2019-05-16T06:13:51.788Z,2.50
2019-05-16T06:14:51.761Z,2.30
2019-05-16T06:15:51.819Z,2.60
2019-05-16T06:16:51.710Z,2.60
2019-05-16T06:17:51.749Z,2.70
2019-05-16T06:18:51.736Z,2.60
2019-05-16T06:19:51.620Z,2.40
2019-05-16T06:20:51.669Z,2.50
2019-05-16T06:21:51.571Z,2.60
2019-05-16T06:22:51.662Z,2.50
2019-05-16T06:23:51.527Z,2.40
2019-05-16T06:24:51.587Z,2.60
2019-05-16T06:25:51.465Z,2.60
2019-05-16T06:26:51.481Z,2.50
2019-05-16T06:27:51.415Z,2.40
2019-05-16T06:28:51.506Z,2.40
2019-05-16T06:29:51.368Z,2.50
2019-05-16T06:30:52.148Z,2.70
2019-05-16T06:31:51.316Z,2.50
2019-05-16T06:32:51.320Z,2.60
2019-05-16T06:33:51.255Z,2.40
2019-05-16T06:34:51.229Z,2.70
2019-05-16T06:35:51.655Z,2.80
2019-05-16T06:36:51.255Z,2.90
2019-05-16T06:37:51.153Z,2.70
2019-05-16T06:38:51.278Z,2.70
2019-05-16T06:39:51.101Z,2.70
2019-05-16T06:40:52.702Z,2.60
2019-05-16T06:41:51.234Z,2.50
2019-05-16T06:42:51.182Z,2.60
2019-05-16T06:43:50.994Z,2.50
2019-05-16T06:44:51.102Z,2.80
2019-05-16T06:45:51.524Z,2.70
2019-05-16T06:47:08.945Z,2.80
2019-05-16T06:47:50.884Z,2.50
2019-05-16T06:48:50.939Z,2.60
2019-05-16T06:49:51.061Z,2.60
2019-05-16T06:50:51.733Z,2.70
2019-05-16T06:51:51.529Z,2.50
2019-05-16T06:52:50.764Z,2.50
2019-05-16T06:53:50.869Z,2.80
2019-05-16T06:54:53.756Z,2.90
2019-05-16T06:55:50.684Z,2.70
2019-05-16T06:56:51.094Z,2.80
2019-05-16T06:57:50.695Z,2.60
2019-05-16T06:58:51.909Z,2.60
2019-05-16T06:59:50.726Z,2.50
2019-05-16T07:00:52.195Z,2.70
2019-05-16T07:01:50.620Z,2.80
2019-05-16T07:02:50.497Z,2.80
2019-05-16T07:03:50.938Z,2.80
2019-05-16T07:04:50.735Z,2.60
2019-05-16T07:05:50.807Z,2.70
2019-05-16T07:06:58.559Z,2.90
2019-05-16T07:07:50.872Z,2.80
2019-05-16T07:08:50.959Z,2.60
2019-05-16T07:10:00.023Z,2.70
2019-05-16T07:10:50.978Z,2.50
2019-05-16T07:11:50.538Z,2.70
2019-05-16T07:12:50.610Z,2.70
2019-05-16T07:13:51.929Z,2.90
2019-05-16T07:14:50.668Z,2.60
2019-05-16T07:15:50.500Z,2.60
2019-05-16T07:16:50.133Z,2.70
2019-05-16T07:17:50.768Z,2.80
2019-05-16T07:18:50.563Z,2.60
2019-05-16T07:19:50.429Z,2.80
2019-05-16T07:20:51.114Z,2.70
2019-05-16T07:21:50.875Z,2.90
2019-05-16T07:22:50.440Z,2.70
2019-05-16T07:23:51.093Z,2.60
2019-05-16T07:24:50.445Z,2.60
2019-05-16T07:25:50.752Z,2.70
2019-05-16T07:26:50.283Z,2.40
2019-05-16T07:27:51.075Z,2.60
2019-05-16T07:28:51.573Z,2.80
2019-05-16T07:29:50.791Z,2.90
2019-05-16T07:30:50.202Z,2.40
2019-05-16T07:31:52.290Z,2.70
2019-05-16T07:32:50.109Z,2.60
2019-05-16T07:33:50.327Z,2.40
2019-05-16T07:34:49.974Z,2.70
2019-05-16T07:35:51.225Z,2.50
2019-05-16T07:36:50.345Z,2.70
2019-05-16T07:37:50.115Z,2.80
2019-05-16T07:38:50.696Z,2.50
2019-05-16T07:39:51.150Z,2.70
2019-05-16T07:40:51.060Z,2.70
2019-05-16T07:41:50.856Z,2.80
2019-05-16T07:42:51.025Z,2.80
2019-05-16T07:43:50.494Z,2.80
2019-05-16T07:44:50.650Z,2.60
2019-05-16T07:45:51.384Z,2.70
2019-05-16T07:46:51.592Z,2.60
2019-05-16T07:47:50.902Z,2.50
2019-05-16T07:48:51.810Z,2.40
2019-05-16T07:49:50.153Z,2.40
2019-05-16T07:50:50.051Z,2.60
2019-05-16T07:51:49.873Z,2.40
2019-05-16T07:52:51.121Z,2.30
2019-05-16T07:53:50.522Z,2.30
2019-05-16T07:54:50.765Z,2.10
2019-05-16T07:55:50.936Z,2.60
2019-05-16T07:56:57.265Z,2.20
2019-05-16T07:57:50.673Z,2.20
2019-05-16T07:58:50.734Z,2.60
2019-05-16T07:59:50.673Z,2.20
2019-05-16T08:00:57.263Z,2.20
2019-05-16T08:01:53.728Z,2.30
2019-05-16T08:02:50.594Z,2.50
2019-05-16T08:03:50.873Z,2.30
2019-05-16T08:04:50.197Z,2.50
2019-05-16T08:05:51.460Z,2.50
2019-05-16T08:06:50.259Z,2.30
2019-05-16T08:07:50.858Z,2.40
2019-05-16T08:08:51.025Z,2.50
2019-05-16T08:09:50.482Z,2.50
2019-05-16T08:10:51.017Z,2.30
2019-05-16T08:11:50.131Z,2.40
2019-05-16T08:12:51.183Z,2.40
2019-05-16T08:13:50.781Z,2.40
2019-05-16T08:14:50.203Z,2.70
2019-05-16T08:15:50.281Z,2.60
2019-05-16T08:16:50.207Z,2.60
2019-05-16T08:17:51.110Z,2.50
2019-05-16T08:18:50.556Z,2.70
2019-05-16T08:19:50.652Z,2.60
2019-05-16T08:20:52.298Z,2.70
2019-05-16T08:21:50.546Z,2.50
2019-05-16T08:22:50.734Z,2.80
2019-05-16T08:23:50.344Z,2.80
2019-05-16T08:24:50.542Z,2.60
2019-05-16T08:25:50.773Z,2.70
2019-05-16T08:26:51.388Z,2.80
2019-05-16T08:27:51.703Z,3.10
2019-05-16T08:28:50.263Z,3.10
2019-05-16T08:29:51.101Z,3.00
2019-05-16T08:30:52.382Z,2.80
2019-05-16T08:31:48.261Z,2.80
2019-05-16T08:32:48.289Z,2.90
2019-05-16T08:33:52.135Z,3.10
2019-05-16T08:34:51.199Z,3.10
2019-05-16T08:35:51.169Z,2.90
2019-05-16T08:36:51.650Z,3.00
2019-05-16T08:37:51.072Z,2.80
2019-05-16T08:38:51.187Z,2.90
2019-05-16T08:39:50.773Z,2.90
2019-05-16T08:41:51.604Z,3.00
2019-05-16T08:42:51.591Z,2.80
2019-05-16T08:43:48.000Z,3.00
2019-05-16T08:44:51.409Z,3.00
2019-05-16T08:45:50.786Z,2.80
2019-05-16T08:46:54.764Z,2.90
2019-05-16T08:47:47.881Z,3.10
2019-05-16T08:48:47.997Z,3.00
2019-05-16T08:49:51.866Z,3.00
2019-05-16T08:50:53.701Z,3.00
2019-05-16T08:51:52.158Z,2.90
2019-05-16T08:52:52.348Z,2.50
2019-05-16T08:53:50.525Z,2.70
2019-05-16T08:54:50.894Z,2.60
2019-05-16T08:55:50.326Z,2.50
2019-05-16T08:56:50.791Z,2.60
2019-05-16T08:57:47.653Z,3.60
2019-05-16T08:58:53.363Z,2.40
2019-05-16T08:59:52.080Z,2.40
2019-05-16T09:00:47.679Z,2.60
2019-05-16T09:01:53.377Z,2.80
2019-05-16T09:02:47.534Z,2.60
2019-05-16T09:03:47.591Z,2.60
2019-05-16T09:04:53.054Z,2.70
2019-05-16T09:05:47.512Z,2.70
2019-05-16T09:06:47.457Z,2.80
2019-05-16T09:07:47.526Z,2.80
2019-05-16T09:08:47.394Z,2.70
2019-05-16T09:09:51.202Z,3.00
2019-05-16T09:10:31.602Z,2.90
2019-05-16T09:10:59.600Z,2.60
2019-05-16T09:11:50.945Z,2.60
2019-05-16T09:12:47.843Z,2.50
2019-05-16T09:13:47.825Z,2.70
2019-05-16T09:14:48.179Z,2.50
2019-05-16T09:15:48.157Z,2.60
2019-05-16T09:16:47.865Z,2.60
2019-05-16T09:17:47.552Z,2.50
2019-05-16T09:18:50.549Z,2.50
2019-05-16T09:19:47.249Z,2.60
2019-05-16T09:20:49.915Z,2.80
2019-05-16T09:21:47.587Z,2.70
2019-05-16T09:22:48.076Z,2.60
2019-05-16T09:23:47.099Z,2.70
2019-05-16T09:24:48.162Z,2.90
2019-05-16T09:25:48.873Z,2.80
2019-05-16T09:26:47.492Z,2.90
2019-05-16T09:27:47.311Z,2.70
2019-05-16T09:28:48.162Z,2.70
2019-05-16T09:29:47.262Z,2.70
2019-05-16T09:30:47.187Z,2.70
2019-05-16T09:32:07.100Z,2.50
2019-05-16T09:32:47.943Z,2.90
2019-05-16T09:33:47.480Z,2.70
2019-05-16T09:34:47.917Z,2.60
2019-05-16T09:35:47.737Z,2.20
2019-05-16T09:36:48.179Z,2.60
2019-05-16T09:37:47.504Z,2.20
2019-05-16T09:38:48.570Z,2.50
2019-05-16T09:39:48.051Z,2.20
2019-05-16T09:40:47.774Z,2.50
2019-05-16T09:41:54.275Z,2.50
2019-05-16T09:42:47.401Z,2.40
2019-05-16T09:43:48.751Z,2.40
2019-05-16T09:44:47.642Z,2.60
2019-05-16T09:45:47.256Z,2.70
2019-05-16T09:46:47.158Z,2.60
2019-05-16T09:47:48.561Z,2.80
2019-05-16T09:48:47.803Z,3.00
2019-05-16T09:49:47.478Z,2.80
2019-05-16T09:50:46.996Z,3.10
2019-05-16T09:51:46.685Z,2.70
2019-05-16T09:52:47.176Z,2.70
2019-05-16T09:53:47.104Z,2.70
2019-05-16T09:54:46.830Z,2.40
2019-05-16T09:55:46.969Z,2.50
2019-05-16T09:56:46.511Z,2.80
2019-05-16T09:57:46.966Z,2.50
2019-05-16T09:58:46.833Z,2.50
2019-05-16T09:59:46.557Z,2.50
2019-05-16T10:00:47.305Z,2.50
2019-05-16T10:01:47.728Z,2.40
2019-05-16T10:02:47.531Z,2.60
2019-05-16T10:03:47.704Z,2.70
2019-05-16T10:04:47.420Z,2.50
2019-05-16T10:05:46.805Z,2.70
2019-05-16T10:06:46.061Z,2.60
2019-05-16T10:07:46.959Z,2.80
2019-05-16T10:08:46.420Z,2.90
2019-05-16T10:09:50.043Z,3.00
2019-05-16T10:10:45.967Z,2.70
2019-05-16T10:11:49.330Z,2.90
2019-05-16T10:12:45.924Z,3.20
2019-05-16T10:13:47.153Z,3.00
2019-05-16T10:14:47.026Z,2.90
2019-05-16T10:15:47.215Z,2.80
2019-05-16T10:16:47.691Z,2.90
2019-05-16T10:17:47.613Z,2.90
2019-05-16T10:18:47.594Z,2.90
2019-05-16T10:19:47.561Z,2.70
2019-05-16T10:20:45.738Z,3.20
2019-05-16T10:21:45.803Z,3.50
2019-05-16T10:22:46.783Z,3.20
2019-05-16T10:23:46.987Z,3.20
2019-05-16T10:24:46.850Z,3.20
2019-05-16T10:25:47.971Z,2.70
2019-05-16T10:26:47.252Z,2.80
2019-05-16T10:27:47.527Z,3.00
2019-05-16T10:28:46.826Z,2.60
2019-05-16T10:29:48.109Z,3.00
2019-05-16T10:30:47.117Z,2.60
2019-05-16T10:31:52.832Z,2.70
2019-05-16T10:32:47.807Z,2.70
2019-05-16T10:33:47.724Z,2.70
2019-05-16T10:34:46.729Z,2.90
2019-05-16T10:35:47.929Z,3.00
2019-05-16T10:36:47.162Z,2.80
2019-05-16T10:37:47.035Z,2.50
2019-05-16T10:38:48.164Z,2.70
2019-05-16T10:39:46.942Z,2.70
2019-05-16T10:40:47.418Z,2.60
2019-05-16T10:41:46.677Z,2.70
2019-05-16T10:42:47.162Z,2.60
2019-05-16T10:43:47.306Z,2.50
2019-05-16T10:44:48.029Z,2.50
2019-05-16T10:45:46.405Z,2.70
2019-05-16T10:46:47.678Z,2.70
2019-05-16T10:47:47.797Z,2.70
2019-05-16T10:48:46.899Z,2.90
2019-05-16T10:49:47.329Z,2.90
2019-05-16T10:50:47.516Z,2.80
2019-05-16T10:51:47.025Z,2.60
2019-05-16T10:52:47.311Z,2.70
2019-05-16T10:54:02.466Z,2.50
2019-05-16T10:54:55.355Z,2.50
2019-05-16T10:55:47.409Z,2.50
2019-05-16T10:56:46.700Z,2.50
2019-05-16T10:57:47.157Z,2.30
2019-05-16T10:59:04.933Z,2.40
2019-05-16T11:00:05.195Z,2.70
2019-05-16T11:01:09.891Z,2.70
2019-05-16T11:01:47.125Z,2.60
2019-05-16T11:02:44.881Z,2.50
2019-05-16T11:03:48.845Z,2.40
2019-05-16T11:04:57.282Z,2.30
2019-05-16T11:05:59.345Z,2.40
2019-05-16T11:06:46.577Z,2.30
2019-05-16T11:07:47.912Z,2.30
2019-05-16T11:08:46.562Z,2.20
2019-05-16T11:09:55.826Z,2.40
2019-05-16T11:10:44.642Z,2.40
2019-05-16T11:11:47.383Z,2.60
2019-05-16T11:12:51.174Z,2.50
2019-05-16T11:13:44.567Z,2.50
2019-05-16T11:14:44.648Z,2.30
2019-05-16T11:15:44.521Z,2.40
2019-05-16T11:16:47.170Z,2.50
2019-05-16T11:17:44.484Z,2.30
2019-05-16T11:18:44.570Z,2.40
2019-05-16T11:19:46.591Z,2.50
2019-05-16T11:20:48.673Z,2.50
2019-05-16T11:21:46.694Z,2.40
2019-05-16T11:22:47.538Z,2.50
2019-05-16T11:23:44.358Z,2.90
2019-05-16T11:24:46.538Z,2.80
2019-05-16T11:25:44.313Z,2.70
2019-05-16T11:26:44.319Z,2.70
2019-05-16T11:27:46.702Z,2.60
2019-05-16T11:28:44.259Z,2.70
2019-05-16T11:29:44.335Z,2.60
2019-05-16T11:30:44.210Z,2.80
2019-05-16T11:31:46.643Z,2.70
2019-05-16T11:32:46.806Z,2.80
2019-05-16T11:33:44.142Z,2.80
2019-05-16T11:34:44.123Z,2.80
2019-05-16T11:35:44.172Z,2.90
2019-05-16T11:36:44.084Z,2.70
2019-05-16T11:37:46.915Z,3.20
2019-05-16T11:38:47.245Z,2.80
2019-05-16T11:39:46.455Z,2.70
2019-05-16T11:40:44.115Z,3.00
2019-05-16T11:41:43.983Z,2.90
2019-05-16T11:42:47.093Z,3.00
2019-05-16T11:43:44.028Z,3.00
2019-05-16T11:44:47.531Z,2.80
2019-05-16T11:45:43.939Z,2.40
2019-05-16T11:46:43.880Z,2.20
2019-05-16T11:47:43.954Z,2.50
2019-05-16T11:48:43.830Z,2.70
2019-05-16T11:49:43.868Z,2.40
2019-05-16T11:50:43.805Z,3.10
2019-05-16T11:51:43.885Z,2.90
2019-05-16T11:52:43.770Z,2.90
2019-05-16T11:53:43.794Z,3.00
2019-05-16T11:54:43.717Z,2.90
2019-05-16T11:55:51.950Z,3.20
2019-05-16T11:56:43.689Z,3.00
2019-05-16T11:57:43.739Z,3.10
2019-05-16T11:58:43.637Z,2.80
2019-05-16T11:59:43.614Z,3.00
2019-05-16T12:00:43.637Z,3.00
2019-05-16T12:01:43.587Z,3.10
2019-05-16T12:02:43.651Z,3.20
2019-05-16T12:03:43.531Z,3.10
2019-05-16T12:04:43.511Z,3.50
2019-05-16T12:05:43.511Z,3.10
2019-05-16T12:06:43.617Z,3.00
2019-05-16T12:07:44.494Z,3.00
2019-05-16T12:08:43.495Z,2.90
2019-05-16T12:09:47.935Z,3.00
2019-05-16T12:10:43.442Z,3.20
2019-05-16T12:11:43.519Z,3.30
2019-05-16T12:12:43.388Z,3.10
2019-05-16T12:13:43.414Z,3.10
2019-05-16T12:14:43.330Z,3.30
2019-05-16T12:15:43.304Z,3.10
2019-05-16T12:16:43.340Z,3.30
2019-05-16T12:17:43.277Z,3.40
2019-05-16T12:18:43.370Z,3.20
2019-05-16T12:19:43.866Z,3.70
2019-05-16T12:20:43.211Z,3.30
2019-05-16T12:21:43.194Z,3.40
2019-05-16T12:22:43.282Z,3.40
2019-05-16T12:23:43.156Z,3.40
2019-05-16T12:24:43.198Z,3.40
2019-05-16T12:25:43.116Z,3.30
2019-05-16T12:26:43.204Z,3.10
2019-05-16T12:27:43.077Z,3.40
2019-05-16T12:28:43.120Z,3.40
2019-05-16T12:29:43.053Z,3.30
2019-05-16T12:30:43.036Z,3.80
2019-05-16T12:31:55.282Z,3.70
2019-05-16T12:32:42.995Z,3.50
2019-05-16T12:33:43.055Z,3.50
2019-05-16T12:34:42.941Z,4.00
2019-05-16T12:35:43.055Z,3.80
2019-05-16T12:36:42.981Z,4.00
2019-05-16T12:37:42.903Z,3.80
2019-05-16T12:38:42.886Z,4.10
2019-05-16T12:39:42.863Z,4.00
2019-05-16T12:40:42.901Z,3.90
2019-05-16T12:41:42.830Z,4.00
2019-05-16T12:42:42.815Z,3.80
2019-05-16T12:43:49.436Z,3.90
2019-05-16T12:44:42.830Z,4.00
2019-05-16T12:45:42.744Z,3.90
2019-05-16T12:46:42.842Z,3.70
2019-05-16T12:47:42.741Z,3.90
2019-05-16T12:48:42.691Z,4.00
2019-05-16T12:49:42.762Z,4.00
2019-05-16T12:50:42.659Z,4.00
2019-05-16T12:51:42.673Z,3.80
2019-05-16T12:52:42.683Z,3.70
2019-05-16T12:53:42.582Z,3.80
2019-05-16T12:54:42.700Z,3.80
2019-05-16T12:55:42.566Z,3.70
2019-05-16T12:56:42.611Z,3.70
2019-05-16T12:57:42.613Z,3.90
2019-05-16T12:58:42.740Z,3.70
2019-05-16T12:59:51.989Z,3.70
2019-05-16T13:00:44.152Z,3.70
2019-05-16T13:01:42.467Z,4.10
2019-05-16T13:02:42.548Z,3.70
2019-05-16T13:03:42.433Z,4.00
2019-05-16T13:04:42.457Z,4.10
2019-05-16T13:05:42.382Z,3.90
2019-05-16T13:06:42.479Z,3.90
2019-05-16T13:07:42.359Z,4.20
2019-05-16T13:08:42.330Z,4.50
2019-05-16T13:09:42.396Z,4.00
2019-05-16T13:10:42.310Z,4.10
2019-05-16T13:11:42.305Z,4.10
2019-05-16T13:12:42.262Z,4.10
2019-05-16T13:13:57.399Z,4.30
2019-05-16T13:14:42.322Z,4.30
2019-05-16T13:15:42.529Z,4.10
2019-05-16T13:16:42.232Z,4.30
2019-05-16T13:17:42.164Z,4.40
2019-05-16T13:18:42.141Z,4.40
2019-05-16T13:19:44.429Z,4.00